createdAt,value
2023-05-10T00:00:45.230Z,1009.43
2023-05-10T00:01:45.134Z,1009.38
2023-05-10T00:02:45.106Z,1009.38
2023-05-10T00:03:45.045Z,1009.41
2023-05-10T00:04:44.932Z,1009.43
2023-05-10T00:05:44.854Z,1009.43
2023-05-10T00:06:44.785Z,1009.37
2023-05-10T00:07:44.724Z,1009.42
2023-05-10T00:08:44.693Z,1009.36
2023-05-10T00:09:44.587Z,1009.37
2023-05-10T00:10:44.520Z,1009.37
2023-05-10T00:11:44.468Z,1009.31
2023-05-10T00:12:44.501Z,1009.35
2023-05-10T00:13:44.341Z,1009.37
2023-05-10T00:14:44.286Z,1009.32
2023-05-10T00:15:44.330Z,1009.31
2023-05-10T00:16:44.226Z,1009.32
2023-05-10T00:17:44.122Z,1009.28
2023-05-10T00:18:44.023Z,1009.27
2023-05-10T00:19:43.956Z,1009.26
2023-05-10T00:20:43.875Z,1009.23
2023-05-10T00:21:43.809Z,1009.17
2023-05-10T00:22:43.780Z,1009.26
2023-05-10T00:23:43.689Z,1009.20
2023-05-10T00:24:43.646Z,1009.22
2023-05-10T00:25:43.560Z,1009.19
2023-05-10T00:26:43.509Z,1009.15
2023-05-10T00:27:43.474Z,1009.15
2023-05-10T06:57:31.330Z,1008.20
2023-05-10T06:58:20.628Z,1008.11
2023-05-10T06:59:20.603Z,1008.12
2023-05-10T07:00:20.812Z,1008.14
2023-05-10T07:01:20.614Z,1008.17
2023-05-10T07:02:20.450Z,1008.13
2023-05-10T07:03:20.573Z,1008.14
2023-05-10T07:04:20.305Z,1008.17
2023-05-10T07:05:20.539Z,1008.24
2023-05-10T07:06:32.285Z,1008.29
2023-05-10T07:07:20.118Z,1008.27
2023-05-10T07:08:20.068Z,1008.18
2023-05-10T07:09:19.989Z,1008.18
2023-05-10T07:10:19.918Z,1008.22
2023-05-10T07:11:19.856Z,1008.21
2023-05-10T07:12:19.858Z,1008.06
2023-05-10T07:13:19.812Z,1008.06
2023-05-10T07:14:19.718Z,1008.10
2023-05-10T07:15:19.722Z,1008.11
2023-05-10T07:16:19.617Z,1008.11
2023-05-10T07:17:19.602Z,1008.23
2023-05-10T07:18:19.487Z,1008.25
2023-05-10T07:19:19.427Z,1008.21
